createdAt,value
2022-09-01T00:00:07.776Z,4.00
2022-09-01T00:02:55.576Z,3.50
2022-09-01T00:05:22.891Z,3.70
2022-09-01T00:07:49.686Z,3.70
2022-09-01T00:10:17.393Z,3.50
2022-09-01T00:12:46.525Z,3.20
2022-09-01T00:15:17.128Z,3.30
2022-09-01T00:17:44.185Z,3.50
2022-09-01T00:20:10.908Z,3.20
2022-09-01T00:22:37.644Z,3.10
2022-09-01T00:25:05.890Z,3.30
2022-09-01T00:27:32.569Z,3.20
2022-09-01T00:30:00.422Z,3.60
2022-09-01T00:32:28.038Z,3.70
2022-09-01T00:34:55.151Z,3.20
2022-09-01T00:37:22.010Z,3.30
2022-09-01T00:39:48.780Z,3.30
2022-09-01T00:42:15.561Z,3.40
2022-09-01T00:44:42.438Z,3.20
2022-09-01T00:47:09.730Z,3.00
2022-09-01T00:49:42.979Z,2.80
2022-09-01T00:52:20.603Z,3.10
2022-09-01T00:54:50.951Z,3.50
2022-09-01T00:57:18.163Z,3.30
2022-09-01T01:00:24.555Z,3.40
2022-09-01T01:02:55.270Z,3.70
2022-09-01T01:05:30.934Z,3.00
2022-09-01T01:07:59.314Z,3.10
2022-09-01T01:10:32.100Z,3.10
2022-09-01T01:13:04.164Z,3.20
2022-09-01T01:15:31.212Z,3.10
2022-09-01T01:17:58.992Z,2.90
2022-09-01T01:20:47.635Z,3.20
2022-09-01T01:23:39.710Z,3.00
2022-09-01T01:26:09.842Z,3.30
2022-09-01T01:28:42.582Z,3.50
2022-09-01T01:31:18.288Z,2.90
2022-09-01T01:33:50.710Z,3.00
2022-09-01T01:36:25.310Z,2.70
2022-09-01T01:38:53.307Z,3.00
2022-09-01T01:41:21.495Z,3.20
2022-09-01T01:43:48.272Z,3.20
2022-09-01T01:46:18.594Z,2.90
2022-09-01T01:48:46.899Z,3.00
2022-09-01T01:51:20.656Z,2.80
2022-09-01T01:53:52.013Z,3.00
2022-09-01T01:56:20.072Z,3.20
2022-09-01T01:58:46.922Z,3.10
2022-09-01T02:01:17.020Z,2.80
2022-09-01T02:03:44.203Z,3.10
2022-09-01T02:06:11.556Z,3.00
2022-09-01T02:08:40.657Z,3.20
2022-09-01T02:11:08.419Z,3.20
2022-09-01T02:13:35.575Z,3.50
2022-09-01T02:16:12.260Z,2.90
2022-09-01T02:18:47.674Z,3.40
2022-09-01T02:21:19.871Z,3.20
2022-09-01T02:23:50.100Z,2.80
2022-09-01T02:26:18.556Z,3.20
2022-09-01T02:28:53.616Z,3.30
2022-09-01T02:31:27.635Z,3.50
2022-09-01T02:33:54.883Z,3.80
2022-09-01T02:36:24.596Z,2.90
2022-09-01T02:38:53.138Z,3.00
2022-09-01T02:41:26.580Z,3.40
2022-09-01T02:43:53.574Z,3.20
2022-09-01T02:46:22.966Z,3.50
2022-09-01T02:48:52.549Z,3.20
2022-09-01T02:51:24.725Z,3.00
2022-09-01T02:53:52.807Z,2.80
2022-09-01T02:56:22.304Z,3.40
2022-09-01T02:58:52.837Z,3.30
2022-09-01T03:01:25.299Z,3.40
2022-09-01T03:03:59.125Z,2.90
2022-09-01T03:06:27.705Z,3.40
2022-09-01T03:08:59.713Z,3.20
2022-09-01T03:11:29.495Z,3.00
2022-09-01T03:13:58.421Z,3.00
2022-09-01T03:16:25.426Z,2.90
2022-09-01T03:18:52.898Z,3.30
2022-09-01T03:21:20.255Z,2.60
2022-09-01T03:23:48.845Z,2.90
2022-09-01T03:26:18.347Z,3.10
2022-09-01T03:28:46.204Z,2.70
2022-09-01T03:31:13.061Z,3.20
2022-09-01T03:33:41.650Z,3.30
2022-09-01T03:36:18.739Z,2.90
2022-09-01T03:38:48.241Z,2.80
2022-09-01T03:41:17.860Z,3.00
2022-09-01T03:43:47.243Z,2.90
2022-09-01T03:46:20.871Z,2.90
2022-09-01T03:48:51.510Z,2.80
2022-09-01T03:51:22.137Z,2.90
2022-09-01T03:53:53.737Z,3.30
2022-09-01T03:56:23.604Z,3.70
2022-09-01T03:58:52.602Z,2.80
2022-09-01T04:01:19.735Z,3.30
2022-09-01T04:03:48.550Z,3.10
2022-09-01T04:06:24.274Z,3.30
2022-09-01T04:09:02.108Z,3.60
2022-09-01T04:11:34.069Z,3.10
2022-09-01T04:14:01.513Z,3.50
2022-09-01T04:16:50.984Z,2.90
2022-09-01T04:19:25.491Z,3.40
2022-09-01T04:21:55.922Z,3.50
2022-09-01T04:24:27.429Z,3.20
2022-09-01T04:26:58.078Z,4.00
2022-09-01T04:29:28.800Z,3.60
2022-09-01T04:32:03.311Z,3.70
2022-09-01T04:34:38.174Z,3.50
2022-09-01T04:37:12.471Z,3.50
2022-09-01T04:39:50.350Z,4.00
2022-09-01T04:42:23.481Z,3.70
2022-09-01T04:44:52.927Z,4.40
2022-09-01T04:47:29.450Z,3.90
2022-09-01T04:50:00.091Z,3.80
2022-09-01T04:52:27.952Z,4.10
2022-09-01T04:54:55.008Z,3.80
2022-09-01T04:57:22.567Z,3.60
2022-09-01T04:59:49.632Z,4.00
2022-09-01T05:02:16.542Z,3.90
2022-09-01T05:04:46.499Z,4.40
2022-09-01T05:07:18.452Z,3.70
2022-09-01T05:09:45.509Z,3.50
2022-09-01T05:12:31.191Z,3.70
2022-09-01T05:14:58.448Z,3.40
2022-09-01T05:17:28.804Z,3.60
2022-09-01T05:19:56.541Z,3.30
2022-09-01T05:22:23.407Z,3.30
2022-09-01T05:25:04.405Z,3.40
2022-09-01T05:27:31.813Z,3.40
2022-09-01T05:30:00.820Z,3.40
2022-09-01T05:32:28.206Z,3.80
2022-09-01T05:34:56.459Z,3.70
2022-09-01T05:37:23.524Z,3.50
2022-09-01T05:39:52.020Z,2.80
2022-09-01T05:42:19.465Z,4.40
2022-09-01T05:44:47.526Z,3.20
2022-09-01T05:47:21.365Z,3.20
2022-09-01T05:49:50.597Z,3.50
2022-09-01T05:52:20.147Z,3.20
2022-09-01T05:54:48.122Z,3.10
2022-09-01T05:57:33.732Z,2.80
2022-09-01T06:00:13.578Z,3.40
2022-09-01T06:02:42.366Z,3.20
2022-09-01T06:05:15.183Z,3.10
2022-09-01T06:07:43.836Z,3.10
2022-09-01T06:10:12.513Z,2.30
2022-09-01T06:12:40.803Z,3.10
2022-09-01T06:15:15.061Z,2.90
2022-09-01T06:17:44.430Z,2.70
2022-09-01T06:20:11.567Z,3.20
2022-09-01T06:22:43.434Z,2.80
2022-09-01T06:25:10.480Z,2.70
2022-09-01T06:27:40.605Z,2.80
2022-09-01T06:30:22.571Z,3.10
2022-09-01T06:33:01.758Z,3.00
2022-09-01T06:35:29.497Z,2.60
2022-09-01T06:37:58.116Z,3.30
2022-09-01T06:40:46.194Z,3.00
2022-09-01T06:43:17.190Z,3.40
2022-09-01T06:45:53.812Z,3.20
2022-09-01T06:48:23.165Z,3.10
2022-09-01T06:53:39.379Z,2.60
2022-09-01T06:56:12.876Z,2.80
2022-09-01T06:58:44.559Z,2.60
2022-09-01T07:01:15.452Z,2.40
2022-09-01T07:03:43.674Z,2.80
2022-09-01T07:09:49.914Z,2.60
2022-09-01T07:12:40.978Z,2.60
2022-09-01T07:17:57.938Z,3.30
2022-09-01T07:20:28.786Z,2.80
2022-09-01T07:23:05.716Z,3.10
2022-09-01T07:26:01.423Z,2.70
2022-09-01T07:28:37.276Z,3.10
2022-09-01T07:34:37.651Z,2.80
2022-09-01T07:39:48.473Z,3.00
2022-09-01T07:45:58.085Z,3.10
2022-09-01T07:51:36.425Z,2.60
2022-09-01T07:54:05.292Z,3.00
2022-09-01T07:56:36.263Z,3.60
2022-09-01T07:59:07.671Z,3.10
2022-09-01T08:01:35.571Z,3.00
2022-09-01T08:04:03.594Z,3.10
2022-09-01T08:06:37.903Z,3.50
2022-09-01T08:09:06.730Z,3.30
2022-09-01T08:12:01.154Z,3.10
2022-09-01T08:14:25.613Z,2.60
2022-09-01T08:16:53.397Z,3.00
2022-09-01T08:19:20.741Z,2.50
2022-09-01T08:22:04.052Z,2.60
2022-09-01T08:24:47.599Z,3.10
2022-09-01T08:27:15.393Z,3.10
2022-09-01T08:29:43.040Z,2.80
2022-09-01T08:32:11.118Z,2.50
2022-09-01T08:34:38.676Z,2.70
2022-09-01T08:37:06.444Z,2.30
2022-09-01T08:39:33.895Z,2.40
2022-09-01T08:42:19.634Z,2.50
2022-09-01T08:45:05.705Z,1.80
2022-09-01T08:47:50.453Z,2.10
2022-09-01T08:50:23.301Z,1.60
2022-09-01T08:53:15.708Z,1.20
2022-09-01T08:55:46.833Z,1.90
2022-09-01T08:58:17.579Z,1.30
2022-09-01T09:01:07.990Z,1.40
2022-09-01T09:03:41.172Z,1.50
2022-09-01T09:06:37.188Z,1.50
2022-09-01T09:09:09.361Z,1.40
2022-09-01T09:11:50.256Z,1.70
2022-09-01T09:14:52.317Z,1.70
2022-09-01T09:17:25.015Z,1.40
2022-09-01T09:19:53.608Z,1.50
2022-09-01T09:22:21.470Z,1.30
2022-09-01T09:25:17.483Z,1.50
2022-09-01T09:27:48.933Z,1.50
2022-09-01T09:30:26.957Z,1.30
2022-09-01T09:35:53.961Z,1.50
2022-09-01T09:38:33.330Z,1.40
2022-09-01T09:41:18.701Z,1.80
2022-09-01T09:43:49.286Z,1.20
2022-09-01T09:46:25.227Z,1.80
2022-09-01T09:49:34.535Z,2.00
2022-09-01T09:52:02.257Z,1.50
2022-09-01T09:54:34.643Z,1.50
2022-09-01T09:57:14.014Z,1.80
2022-09-01T09:59:58.147Z,1.70
2022-09-01T10:02:43.852Z,1.60
2022-09-01T10:05:36.464Z,1.90
2022-09-01T10:08:10.918Z,1.60
2022-09-01T10:10:56.378Z,1.60
2022-09-01T10:13:31.480Z,2.20
2022-09-01T10:16:09.255Z,1.50
2022-09-01T10:18:44.965Z,1.40
2022-09-01T10:21:17.636Z,1.20
2022-09-01T10:23:45.126Z,1.60
2022-09-01T10:26:35.816Z,1.50
2022-09-01T10:29:19.850Z,1.40
2022-09-01T10:31:49.493Z,1.40
2022-09-01T10:34:23.607Z,1.60
2022-09-01T10:36:56.712Z,1.50
2022-09-01T10:39:28.639Z,1.20
2022-09-01T10:42:06.970Z,1.60
2022-09-01T10:44:55.142Z,1.80
2022-09-01T10:47:33.481Z,1.90
2022-09-01T10:50:14.910Z,1.40
2022-09-01T10:52:43.284Z,1.60
2022-09-01T10:55:41.180Z,1.80
2022-09-01T11:01:51.155Z,1.20
2022-09-01T11:04:22.527Z,1.50
2022-09-01T11:07:12.060Z,1.20
2022-09-01T11:09:43.919Z,1.40
2022-09-01T11:12:32.124Z,1.20
2022-09-01T11:15:35.463Z,1.20
2022-09-01T11:18:09.461Z,1.30
2022-09-01T11:20:40.151Z,1.20
2022-09-01T11:23:20.186Z,1.50
2022-09-01T11:26:26.000Z,1.30
2022-09-01T11:28:54.538Z,1.00
2022-09-01T11:31:41.361Z,1.40
2022-09-01T11:34:20.707Z,1.10
2022-09-01T11:36:52.961Z,1.50
2022-09-01T11:39:26.514Z,1.00
2022-09-01T11:42:09.673Z,0.90
2022-09-01T11:44:49.203Z,1.10
2022-09-01T11:47:37.706Z,0.90
2022-09-01T11:50:14.925Z,1.20
2022-09-01T11:52:52.116Z,1.00
2022-09-01T11:55:34.110Z,0.90
2022-09-01T11:58:03.166Z,0.90
2022-09-01T12:00:38.519Z,1.10
2022-09-01T12:03:25.113Z,1.00
2022-09-01T12:06:02.099Z,1.00
2022-09-01T12:08:39.349Z,1.00
2022-09-01T12:11:19.997Z,1.00
2022-09-01T12:14:11.536Z,1.10
2022-09-01T12:16:44.369Z,1.00
2022-09-01T12:19:24.153Z,1.10
2022-09-01T12:22:17.510Z,1.20
2022-09-01T12:24:47.901Z,1.00
2022-09-01T12:27:16.358Z,1.10
2022-09-01T12:29:44.501Z,0.90
2022-09-01T12:32:13.770Z,1.00
2022-09-01T12:34:41.011Z,1.10
2022-09-01T12:37:20.390Z,1.00
2022-09-01T12:39:50.893Z,1.10
2022-09-01T12:42:21.333Z,0.80
2022-09-01T12:44:55.760Z,0.80
2022-09-01T12:47:35.405Z,1.40
2022-09-01T12:50:11.162Z,0.90
2022-09-01T12:52:52.456Z,1.00
2022-09-01T12:58:12.718Z,0.90
2022-09-01T13:01:16.215Z,0.90
2022-09-01T13:04:10.628Z,1.00
2022-09-01T13:06:38.460Z,0.90
2022-09-01T13:09:06.768Z,1.00
2022-09-01T13:14:22.068Z,1.10
2022-09-01T13:16:49.179Z,0.90
2022-09-01T13:19:24.058Z,0.90
2022-09-01T13:21:54.673Z,1.00
2022-09-01T13:24:26.408Z,0.90
2022-09-01T13:29:45.313Z,1.00
2022-09-01T13:32:27.774Z,1.00
2022-09-01T13:34:55.043Z,1.10
2022-09-01T13:37:22.959Z,1.20
2022-09-01T13:39:51.055Z,1.40
2022-09-01T13:42:18.785Z,1.50
2022-09-01T13:44:48.458Z,1.10
2022-09-01T13:47:32.214Z,1.50
2022-09-01T13:50:11.404Z,1.20
2022-09-01T13:52:43.715Z,0.90
2022-09-01T13:55:13.872Z,1.30
2022-09-01T13:57:41.101Z,1.10
2022-09-01T14:00:12.011Z,1.00
2022-09-01T14:02:42.575Z,1.20
2022-09-01T14:05:10.131Z,1.10
2022-09-01T14:07:37.311Z,0.90
2022-09-01T14:10:09.238Z,1.30
2022-09-01T14:12:36.960Z,1.10
2022-09-01T14:15:15.965Z,1.00
2022-09-01T14:17:46.263Z,1.00
2022-09-01T14:20:18.576Z,0.90
2022-09-01T14:22:48.223Z,0.80
2022-09-01T14:25:19.805Z,0.80
2022-09-01T14:27:49.328Z,1.20
2022-09-01T14:30:22.316Z,1.10
2022-09-01T14:32:51.875Z,1.20
2022-09-01T14:35:23.677Z,0.90
2022-09-01T14:37:52.944Z,1.20
2022-09-01T14:40:24.541Z,1.00
2022-09-01T14:42:53.625Z,1.10
2022-09-01T14:45:28.410Z,1.20
2022-09-01T14:48:01.158Z,1.00
2022-09-01T14:50:32.289Z,0.90
2022-09-01T14:53:02.390Z,1.00
2022-09-01T14:55:32.675Z,1.30
2022-09-01T14:58:00.950Z,1.10
2022-09-01T15:00:29.509Z,1.10
2022-09-01T15:02:57.995Z,0.80
2022-09-01T15:05:26.772Z,1.10
2022-09-01T15:07:55.513Z,1.20
2022-09-01T15:10:26.089Z,1.20
2022-09-01T15:12:56.264Z,1.10
2022-09-01T15:15:25.144Z,0.80
2022-09-01T15:17:54.286Z,1.10
2022-09-01T15:20:41.179Z,0.90
2022-09-01T15:23:10.590Z,0.90
2022-09-01T15:25:40.174Z,0.90
2022-09-01T15:28:09.523Z,1.10
2022-09-01T15:30:38.470Z,1.10
2022-09-01T15:33:13.238Z,1.60
2022-09-01T15:35:46.592Z,0.80
2022-09-01T15:38:17.522Z,0.80
2022-09-01T15:40:47.339Z,1.30
2022-09-01T15:43:28.202Z,1.40
2022-09-01T15:45:58.018Z,0.90
2022-09-01T15:48:28.096Z,1.20
2022-09-01T15:51:21.362Z,1.30
2022-09-01T15:53:56.121Z,1.60
2022-09-01T15:56:24.548Z,1.00
2022-09-01T15:59:07.732Z,0.80
2022-09-01T16:01:42.058Z,1.10
2022-09-01T16:04:18.413Z,1.10
2022-09-01T16:06:51.931Z,1.00
2022-09-01T16:09:22.331Z,0.90
2022-09-01T16:11:51.882Z,0.90
2022-09-01T16:14:23.648Z,1.00
2022-09-01T16:16:59.639Z,1.20
2022-09-01T16:19:58.515Z,1.10
2022-09-01T16:22:37.394Z,1.00
2022-09-01T16:25:19.085Z,1.00
2022-09-01T16:27:47.033Z,0.80
2022-09-01T16:30:21.930Z,1.10
2022-09-01T16:32:49.836Z,1.10
2022-09-01T16:35:20.095Z,0.90
2022-09-01T16:38:25.169Z,0.90
2022-09-01T16:41:23.617Z,0.80
2022-09-01T16:43:54.629Z,0.80
2022-09-01T16:46:34.863Z,0.80
2022-09-01T16:49:14.337Z,0.80
2022-09-01T16:52:23.714Z,0.90
2022-09-01T16:55:15.491Z,1.00
2022-09-01T16:58:09.180Z,0.90
2022-09-01T17:01:10.030Z,0.80
2022-09-01T17:04:12.558Z,1.10
2022-09-01T17:07:06.449Z,0.90
2022-09-01T17:09:45.615Z,0.90
2022-09-01T17:12:23.553Z,0.80
2022-09-01T17:15:14.552Z,1.10
2022-09-01T17:17:50.707Z,0.80
2022-09-01T17:20:27.888Z,0.90
2022-09-01T17:23:00.466Z,0.80
2022-09-01T17:25:42.850Z,1.10
2022-09-01T17:28:20.626Z,0.80
2022-09-01T17:31:00.413Z,0.90
2022-09-01T17:33:46.169Z,1.20
2022-09-01T17:36:46.666Z,1.10
2022-09-01T17:39:36.680Z,1.10
2022-09-01T17:42:24.577Z,0.90
2022-09-01T17:44:55.775Z,1.00
2022-09-01T17:47:24.161Z,1.10
2022-09-01T17:50:14.960Z,1.10
2022-09-01T17:53:26.858Z,0.90
2022-09-01T17:56:01.542Z,0.90
2022-09-01T17:58:47.987Z,1.10
2022-09-01T18:01:34.318Z,1.10
2022-09-01T18:04:23.340Z,1.20
2022-09-01T18:07:04.738Z,0.90
2022-09-01T18:09:43.275Z,1.10
2022-09-01T18:12:17.464Z,1.10
2022-09-01T18:14:55.907Z,1.20
2022-09-01T18:17:38.704Z,1.00
2022-09-01T18:20:49.016Z,1.10
2022-09-01T18:23:20.879Z,1.00
2022-09-01T18:25:57.384Z,1.00
2022-09-01T18:28:25.862Z,1.00
2022-09-01T18:31:06.401Z,0.90
2022-09-01T18:33:40.367Z,0.90
2022-09-01T18:36:13.639Z,1.00
2022-09-01T18:38:57.581Z,1.00
2022-09-01T18:41:48.988Z,1.00
2022-09-01T18:44:38.494Z,0.90
2022-09-01T18:47:11.165Z,1.00
2022-09-01T18:49:47.533Z,1.20
2022-09-01T18:53:00.470Z,1.30
2022-09-01T18:55:41.013Z,1.10
2022-09-01T18:58:34.273Z,1.00
2022-09-01T19:01:12.660Z,1.10
2022-09-01T19:04:18.808Z,1.10
2022-09-01T19:07:03.730Z,1.20
2022-09-01T19:09:36.925Z,1.10
2022-09-01T19:12:36.266Z,1.10
2022-09-01T19:15:16.193Z,1.00
2022-09-01T19:18:04.812Z,1.00
2022-09-01T19:20:37.846Z,1.00
2022-09-01T19:23:37.409Z,1.00
2022-09-01T19:26:11.735Z,1.10
2022-09-01T19:29:09.459Z,1.40
2022-09-01T19:31:42.605Z,1.20
2022-09-01T19:34:16.292Z,1.30
2022-09-01T19:36:53.637Z,1.00
2022-09-01T19:39:30.542Z,1.20
2022-09-01T19:42:25.338Z,1.10
2022-09-01T19:45:07.465Z,1.60
2022-09-01T19:47:45.256Z,1.90
2022-09-01T19:50:21.221Z,1.80
2022-09-01T19:53:02.388Z,1.70
2022-09-01T19:55:41.720Z,2.00
2022-09-01T19:58:19.022Z,2.60
2022-09-01T20:00:56.793Z,2.10
2022-09-01T20:03:35.137Z,2.50
2022-09-01T20:06:07.077Z,2.40
2022-09-01T20:08:54.199Z,2.30
2022-09-01T20:11:35.506Z,2.00
2022-09-01T20:14:20.527Z,2.60
2022-09-01T20:16:51.293Z,2.30
2022-09-01T20:19:24.883Z,2.00
2022-09-01T20:21:55.423Z,2.10
2022-09-01T20:24:33.835Z,2.10
2022-09-01T20:27:39.215Z,2.20
2022-09-01T20:30:16.772Z,2.20
2022-09-01T20:33:10.597Z,2.20
2022-09-01T20:36:08.658Z,2.40
2022-09-01T20:39:05.371Z,2.20
2022-09-01T20:41:39.625Z,2.20
2022-09-01T20:44:15.918Z,2.60
2022-09-01T20:46:43.265Z,2.40
2022-09-01T20:49:15.779Z,2.10
2022-09-01T20:51:52.767Z,2.50
2022-09-01T20:54:40.537Z,2.40
2022-09-01T20:57:17.538Z,2.00
2022-09-01T20:59:50.402Z,1.80
2022-09-01T21:02:47.411Z,2.00
2022-09-01T21:05:18.143Z,2.30
2022-09-01T21:08:14.794Z,2.00
2022-09-01T21:10:51.463Z,2.30
2022-09-01T21:13:43.231Z,2.20
2022-09-01T21:16:33.537Z,2.30
2022-09-01T21:19:18.854Z,2.80
2022-09-01T21:21:51.639Z,2.90
2022-09-01T21:24:19.090Z,3.50
2022-09-01T21:26:48.407Z,3.50
2022-09-01T21:29:49.464Z,3.60
2022-09-01T21:32:17.000Z,3.70
2022-09-01T21:34:45.210Z,3.90
2022-09-01T21:37:13.250Z,3.70
2022-09-01T21:39:40.908Z,2.90
2022-09-01T21:42:11.709Z,3.20
2022-09-01T21:44:40.110Z,2.20
2022-09-01T21:47:07.262Z,2.50
2022-09-01T21:49:34.222Z,2.90
2022-09-01T21:52:01.591Z,2.40
2022-09-01T21:54:28.666Z,2.20
2022-09-01T21:56:55.584Z,2.60
2022-09-01T21:59:22.918Z,2.80
2022-09-01T22:01:50.071Z,2.40
2022-09-01T22:04:18.140Z,2.50
2022-09-01T22:06:45.995Z,2.40
2022-09-01T22:09:21.337Z,2.40
2022-09-01T22:11:50.749Z,2.60
2022-09-01T22:14:19.281Z,2.50
2022-09-01T22:16:47.693Z,2.80
2022-09-01T22:19:15.061Z,2.80
2022-09-01T22:21:42.450Z,3.00
2022-09-01T22:24:09.870Z,3.20
2022-09-01T22:26:36.711Z,3.10
2022-09-01T22:29:06.175Z,2.90
2022-09-01T22:31:36.145Z,3.40
2022-09-01T22:34:04.420Z,3.10
2022-09-01T22:36:37.845Z,2.70
2022-09-01T22:39:06.288Z,2.70
2022-09-01T22:41:37.857Z,2.70
2022-09-01T22:44:05.128Z,3.10
2022-09-01T22:46:34.450Z,3.00
2022-09-01T22:49:01.777Z,2.60
2022-09-01T22:51:29.104Z,2.90
2022-09-01T22:53:56.256Z,2.80
2022-09-01T22:56:29.580Z,3.20
2022-09-01T22:59:00.721Z,3.00
2022-09-01T23:01:31.286Z,3.00
2022-09-01T23:04:03.913Z,3.00
2022-09-01T23:06:32.866Z,3.00
2022-09-01T23:09:01.916Z,2.90
2022-09-01T23:11:28.963Z,2.80
2022-09-01T23:13:55.869Z,2.80
2022-09-01T23:16:24.420Z,2.40
2022-09-01T23:18:54.467Z,2.60
2022-09-01T23:21:28.208Z,2.90
2022-09-01T23:23:58.744Z,2.90
2022-09-01T23:26:27.624Z,2.90
2022-09-01T23:28:55.067Z,2.90
2022-09-01T23:31:24.641Z,2.70
2022-09-01T23:33:51.780Z,2.40
2022-09-01T23:36:21.627Z,2.50
2022-09-01T23:38:49.427Z,2.80
2022-09-01T23:41:22.552Z,2.40
2022-09-01T23:43:51.179Z,2.50
2022-09-01T23:46:20.890Z,2.70
2022-09-01T23:48:47.711Z,2.30
2022-09-01T23:51:17.537Z,2.60
2022-09-01T23:53:46.435Z,2.30
2022-09-01T23:56:20.022Z,2.50
2022-09-01T23:58:48.411Z,2.40
